Time;durP1;ratioP1;P1;durP2;ratioP2;P2;SDS_P1;SDS_P2;PMS_P1;PMS_P2;Temp;Humidity;BMP_temperature;BMP_pressure;BME280_temperature;BME280_humidity;BME280_pressure;Samples;Min_cycle;Max_cycle;Signal;HPM_P1;HPM_P2
2022/11/15 06:44:20;;;;;;;;;3.00;3.00;;;;;18.25;54.51;100326.69;5120418;27;46202;-77
2022/11/15 06:46:45;;;;;;;;;1.67;1.67;;;;;18.55;54.46;100327.47;5105442;27;45840;-79
2022/11/15 06:49:10;;;;;;;;;2.00;2.00;;;;;19.01;55.17;100325.91;5100425;27;45722;-79
2022/11/15 06:51:35;;;;;;;;;2.00;2.00;;;;;19.51;55.18;100322.00;5093593;27;53917;-79
2022/11/15 06:54:01;;;;;;;;;2.00;2.00;;;;;20.04;54.86;100315.94;5093336;27;49633;-79
2022/11/15 06:56:26;;;;;;;;;4.00;2.33;;;;;20.49;54.45;100317.63;5105825;27;45501;-79
2022/11/15 06:58:51;;;;;;;;;1.00;1.00;;;;;20.91;54.28;100313.34;5094236;27;46352;-81
2022/11/15 07:01:17;;;;;;;;;2.00;2.00;;;;;21.28;54.04;100313.13;5111240;27;46617;-77
2022/11/15 07:03:42;;;;;;;;;1.33;1.33;;;;;21.59;53.48;100304.44;5117922;27;47795;-78
2022/11/15 07:06:09;;;;;;;;;2.00;2.00;;;;;21.84;53.64;100299.94;5112465;27;45401;-79
2022/11/15 07:08:35;;;;;;;;;1.00;1.00;;;;;22.11;53.20;100291.66;5114374;27;45396;-74
2022/11/15 07:11:06;;;;;;;;;3.67;1.00;;;;;22.34;53.25;100296.38;5110458;27;45484;-74
2022/11/15 07:13:32;;;;;;;;;1.67;1.67;;;;;22.55;52.90;100300.41;5111866;27;46402;-75
2022/11/15 07:16:01;;;;;;;;;3.67;2.33;;;;;22.73;52.59;100303.75;5111502;27;45406;-74
2022/11/15 07:18:27;;;;;;;;;3.00;3.00;;;;;22.84;52.18;100283.59;5111179;27;45480;-75
2022/11/15 07:20:52;;;;;;;;;1.00;1.00;;;;;23.03;51.90;100287.75;5110864;27;45335;-74
2022/11/15 07:23:18;;;;;;;;;3.00;1.67;;;;;23.13;51.67;100287.53;5104177;27;45414;-78
2022/11/15 07:25:43;;;;;;;;;1.67;1.67;;;;;23.25;51.61;100297.94;5094180;27;45733;-81
2022/11/15 07:28:08;;;;;;;;;1.33;1.33;;;;;23.37;51.48;100293.84;5110966;27;45431;-79
2022/11/15 07:30:34;;;;;;;;;0.00;0.00;;;;;23.46;51.22;100282.97;5112614;27;45232;-79
2022/11/15 07:33:00;;;;;;;;;1.67;1.33;;;;;23.55;51.08;100282.72;5111759;27;56523;-79
2022/11/15 07:35:27;;;;;;;;;2.67;1.00;;;;;23.65;51.14;100284.34;5112390;27;45687;-78
2022/11/15 07:38:01;;;;;;;;;2.00;2.00;;;;;23.78;51.14;100291.88;5112512;27;45428;-80
2022/11/15 07:40:28;;;;;;;;;3.00;3.00;;;;;23.90;50.82;100295.00;5119766;27;45537;-84
2022/11/15 07:42:59;;;;;;;;;4.67;2.67;;;;;24.04;50.79;100283.34;5110807;27;46124;-84
2022/11/15 07:45:28;;;;;;;;;1.00;1.00;;;;;24.17;50.65;100277.38;5108532;27;45591;-84
2022/11/15 07:47:55;;;;;;;;;3.33;2.67;;;;;24.31;50.60;100272.97;5111852;27;45378;-83
2022/11/15 07:50:21;;;;;;;;;2.67;1.33;;;;;24.44;50.78;100268.78;5112046;27;45549;-83
2022/11/15 07:52:47;;;;;;;;;1.00;1.00;;;;;24.57;50.35;100262.72;5112338;27;45456;-77
2022/11/15 07:55:12;;;;;;;;;2.00;2.00;;;;;24.68;50.11;100259.53;5096883;27;45488;-79
2022/11/15 07:57:38;;;;;;;;;2.67;1.33;;;;;24.85;50.37;100262.06;5098391;27;45312;-79
2022/11/15 08:00:05;;;;;;;;;1.67;1.00;;;;;24.97;49.90;100252.41;5096409;27;48839;-87
2022/11/15 08:02:30;;;;;;;;;1.00;1.00;;;;;25.08;49.75;100259.22;5093665;27;45538;-87
2022/11/15 08:04:56;;;;;;;;;1.00;1.00;;;;;25.15;49.52;100250.28;5097398;27;48377;-80
2022/11/15 08:07:21;;;;;;;;;1.00;1.00;;;;;25.15;49.44;100236.72;5104204;27;45454;-80
2022/11/15 08:09:46;;;;;;;;;2.67;2.67;;;;;25.26;49.79;100242.50;5095217;27;46917;-84
2022/11/15 08:12:11;;;;;;;;;3.67;2.00;;;;;25.31;49.60;100239.22;5098986;27;50604;-83
2022/11/15 08:14:37;;;;;;;;;2.00;2.00;;;;;25.40;49.26;100234.50;5096421;27;45436;-74
2022/11/15 08:17:02;;;;;;;;;2.33;0.33;;;;;25.41;48.95;100230.72;5091665;27;45559;-76
2022/11/15 08:19:27;;;;;;;;;1.00;1.00;;;;;25.39;48.69;100224.66;5101866;27;45413;-77
2022/11/15 08:21:53;;;;;;;;;2.67;1.00;;;;;25.37;48.47;100224.84;5098664;27;46116;-77
2022/11/15 08:24:18;;;;;;;;;0.00;0.00;;;;;25.36;48.30;100238.63;5082176;27;51378;-77
2022/11/15 08:26:43;;;;;;;;;1.00;1.00;;;;;25.37;48.49;100234.88;5088710;27;45624;-76
2022/11/15 08:29:09;;;;;;;;;2.67;2.00;;;;;25.39;48.69;100230.09;5097394;27;45263;-81
2022/11/15 08:31:36;;;;;;;;;2.00;2.00;;;;;25.39;48.45;100230.09;5089370;27;49601;-81
2022/11/15 08:34:02;;;;;;;;;2.00;1.33;;;;;25.45;48.31;100226.59;5096546;27;45283;-80
2022/11/15 08:36:27;;;;;;;;;3.33;2.00;;;;;25.49;48.42;100213.47;5097991;27;45472;-80
2022/11/15 08:38:53;;;;;;;;;1.00;1.00;;;;;25.55;48.37;100215.44;5104941;27;45488;-79
2022/11/15 08:41:32;;;;;;;;;2.67;1.67;;;;;25.60;48.29;100207.53;5097792;27;46199;-83
2022/11/15 08:43:57;;;;;;;;;1.00;1.00;;;;;25.68;48.11;100206.56;5085821;27;45406;-83
2022/11/15 08:46:23;;;;;;;;;3.00;1.67;;;;;25.71;47.84;100202.63;5096313;27;46316;-84
2022/11/15 08:48:48;;;;;;;;;1.00;1.00;;;;;25.71;48.12;100205.34;5090250;27;45332;-83
2022/11/15 08:51:13;;;;;;;;;2.00;2.00;;;;;25.74;47.67;100203.06;5096223;27;46439;-80
2022/11/15 08:53:39;;;;;;;;;2.00;2.00;;;;;25.75;48.11;100184.88;5097011;27;45463;-76
2022/11/15 08:56:10;;;;;;;;;1.00;1.00;;;;;25.79;47.63;100181.56;5097438;27;45386;-72
2022/11/15 08:58:36;;;;;;;;;2.67;1.00;;;;;25.78;47.70;100171.72;5097430;27;45759;-70
2022/11/15 09:01:02;;;;;;;;;1.33;1.33;;;;;25.86;47.75;100173.44;5096502;27;45406;-77
2022/11/15 09:03:27;;;;;;;;;2.00;1.00;;;;;25.88;47.49;100162.38;5096667;27;45436;-75
2022/11/15 09:05:57;;;;;;;;;1.33;1.33;;;;;25.91;47.22;100168.25;5096349;27;45498;-74
2022/11/15 09:08:24;;;;;;;;;1.00;1.00;;;;;25.94;47.74;100174.34;5095263;27;45519;-73
2022/11/15 09:10:49;;;;;;;;;1.00;1.00;;;;;25.95;47.46;100160.53;5096016;27;45686;-74
2022/11/15 09:13:14;;;;;;;;;1.00;1.00;;;;;25.99;47.52;100161.00;5096782;27;45375;-73
2022/11/15 09:15:40;;;;;;;;;1.00;1.00;;;;;26.02;47.49;100157.88;5093253;27;45468;-74
2022/11/15 09:18:05;;;;;;;;;2.00;2.00;;;;;26.04;46.98;100162.06;5095917;27;45575;-74
2022/11/15 09:20:31;;;;;;;;;1.00;1.00;;;;;26.06;47.18;100153.72;5095735;27;47291;-70
2022/11/15 09:23:04;;;;;;;;;1.00;1.00;;;;;26.03;46.86;100160.38;5090386;27;45475;-74
2022/11/15 09:25:30;;;;;;;;;2.33;2.33;;;;;26.11;46.88;100162.09;5089637;27;45489;-74
2022/11/15 09:27:56;;;;;;;;;2.67;1.00;;;;;26.06;46.80;100161.88;5095188;27;45364;-76
2022/11/15 09:30:22;;;;;;;;;2.00;2.00;;;;;26.07;46.86;100171.69;5097798;27;48098;-74
2022/11/15 09:32:47;;;;;;;;;2.00;2.00;;;;;26.02;46.62;100163.31;5096109;27;45405;-75
2022/11/15 09:35:13;;;;;;;;;1.00;1.00;;;;;25.97;46.50;100163.06;5084579;27;45334;-75
2022/11/15 09:37:38;;;;;;;;;1.33;1.00;;;;;25.96;46.67;100164.09;5095855;27;45444;-75
2022/11/15 09:40:04;;;;;;;;;1.00;1.00;;;;;25.99;47.03;100166.44;5092593;27;46220;-74
2022/11/15 09:42:41;;;;;;;;;3.33;1.00;;;;;26.01;46.84;100161.63;5092879;27;45506;-70
2022/11/15 09:45:45;;;;;;;;;1.00;1.00;;;;;26.04;46.91;100169.41;5096351;27;45470;-71
2022/11/15 09:48:16;;;;;;;;;1.00;1.00;;;;;26.06;46.77;100167.31;5083543;27;46569;-72
2022/11/15 09:50:49;;;;;;;;;0.67;0.33;;;;;26.04;46.56;100153.09;5093588;27;45417;-71
2022/11/15 09:53:25;;;;;;;;;0.00;0.00;;;;;26.10;46.73;100167.75;5091919;27;45525;-72
2022/11/15 09:56:02;;;;;;;;;1.00;1.00;;;;;26.09;46.57;100158.75;5094535;27;45492;-72
2022/11/15 09:58:27;;;;;;;;;1.33;1.00;;;;;26.17;46.59;100160.47;5094050;27;45647;-73
2022/11/15 10:00:53;;;;;;;;;0.33;0.33;;;;;26.19;46.37;100152.94;5088479;27;45389;-73
2022/11/15 10:03:37;;;;;;;;;1.33;1.33;;;;;26.21;46.73;100152.75;5093886;27;45443;-72
2022/11/15 10:06:04;;;;;;;;;1.00;1.00;;;;;26.19;46.22;100147.50;5087981;27;45401;-72
2022/11/15 10:08:59;;;;;;;;;0.33;0.33;;;;;26.17;46.21;100134.09;5079378;27;45300;-71
2022/11/15 10:11:31;;;;;;;;;0.33;0.33;;;;;26.14;46.19;100133.66;5075640;27;46175;-73
2022/11/15 10:14:02;;;;;;;;;0.33;0.33;;;;;26.13;46.68;100121.97;5080105;27;45421;-73
2022/11/15 10:16:38;;;;;;;;;1.00;1.00;;;;;26.13;46.57;100108.38;5081262;27;45340;-74
2022/11/15 10:19:18;;;;;;;;;1.00;1.00;;;;;26.15;46.64;100110.88;5083541;27;45495;-73
2022/11/15 10:21:56;;;;;;;;;1.00;1.00;;;;;26.17;46.31;100115.06;5080412;27;45540;-73
2022/11/15 10:24:27;;;;;;;;;2.00;2.00;;;;;26.19;46.55;100114.88;5083841;27;45429;-72
2022/11/15 10:26:53;;;;;;;;;0.00;0.00;;;;;26.17;46.24;100119.69;5096320;27;45440;-72
2022/11/15 10:29:23;;;;;;;;;0.67;0.67;;;;;26.05;46.02;100103.94;5092933;27;45590;-73
2022/11/15 10:31:48;;;;;;;;;4.00;1.00;;;;;25.93;45.82;100094.66;5082781;27;45444;-72
2022/11/15 10:34:15;;;;;;;;;1.00;1.00;;;;;25.81;45.54;100086.22;5085080;27;45475;-72
2022/11/15 10:36:54;;;;;;;;;1.00;1.00;;;;;25.69;45.18;100085.09;5083779;27;45481;-72
2022/11/15 10:39:19;;;;;;;;;0.00;0.00;;;;;25.60;45.39;100087.13;5087360;27;45511;-72
2022/11/15 10:41:44;;;;;;;;;1.33;1.33;;;;;25.48;45.52;100068.66;5080758;27;45374;-72
2022/11/15 10:44:19;;;;;;;;;2.67;1.00;;;;;25.44;45.70;100067.34;5084760;27;48036;-73
2022/11/15 10:47:03;;;;;;;;;2.00;1.00;;;;;25.39;45.24;100072.53;5092701;27;45489;-78
2022/11/15 10:49:30;;;;;;;;;1.33;1.33;;;;;25.36;45.54;100065.63;5093860;27;45726;-77
2022/11/15 10:51:57;;;;;;;;;3.00;1.67;;;;;25.39;45.69;100064.41;5095585;27;46665;-77
2022/11/15 10:54:35;;;;;;;;;1.00;1.00;;;;;25.41;45.82;100056.06;5085883;27;45465;-77
2022/11/15 10:57:08;;;;;;;;;1.00;1.00;;;;;25.44;45.29;100047.50;5090937;27;45419;-77
2022/11/15 10:59:37;;;;;;;;;3.33;1.00;;;;;25.51;45.44;100049.22;5094505;27;45432;-77
2022/11/15 11:02:02;;;;;;;;;1.00;1.00;;;;;25.57;45.30;100050.34;5093352;27;45431;-77
2022/11/15 11:04:27;;;;;;;;;2.33;2.00;;;;;25.62;45.21;100038.84;5088842;27;46643;-77
2022/11/15 11:06:59;;;;;;;;;0.00;0.00;;;;;25.68;45.36;100031.78;5086381;27;49864;-71
2022/11/15 11:09:36;;;;;;;;;3.33;1.33;;;;;25.72;45.31;100028.50;5093434;27;45540;-71
2022/11/15 11:12:05;;;;;;;;;1.00;1.00;;;;;25.75;45.32;100027.25;5083827;27;46310;-71
2022/11/15 11:14:36;;;;;;;;;4.00;1.00;;;;;25.74;45.06;100020.09;5088922;27;45696;-71
2022/11/15 11:17:16;;;;;;;;;1.00;1.00;;;;;25.77;44.79;100020.56;5088698;27;45535;-71
2022/11/15 11:20:03;;;;;;;;;1.67;1.00;;;;;25.77;45.22;100006.13;5084084;27;45495;-75
2022/11/15 11:22:57;;;;;;;;;1.00;1.00;;;;;25.76;45.28;100005.28;5089119;27;45740;-78
2022/11/15 11:25:34;;;;;;;;;2.00;1.00;;;;;25.73;44.77;100002.97;5086915;27;45583;-77
2022/11/15 11:28:21;;;;;;;;;2.00;2.00;;;;;25.72;44.78;100003.19;5093926;27;45456;-80
2022/11/15 11:30:52;;;;;;;;;1.00;1.00;;;;;25.73;44.97;99996.69;5091485;27;45418;-78
2022/11/15 11:33:27;;;;;;;;;0.00;0.00;;;;;25.70;45.30;99986.25;5097874;27;46800;-75
2022/11/15 11:36:12;;;;;;;;;1.00;1.00;;;;;25.67;45.04;99981.19;5083618;27;47253;-74
2022/11/15 11:39:10;;;;;;;;;1.00;1.00;;;;;25.75;45.15;99987.28;5085572;27;45867;-76
2022/11/15 11:41:46;;;;;;;;;2.00;2.00;;;;;25.76;45.10;99982.72;5097273;27;45492;-76
2022/11/15 11:44:24;;;;;;;;;1.00;1.00;;;;;25.77;45.07;99981.66;5085803;27;46462;-77
2022/11/15 11:47:14;;;;;;;;;4.67;1.00;;;;;25.79;44.76;99983.13;5091878;27;45814;-77
2022/11/15 11:49:45;;;;;;;;;1.33;1.33;;;;;25.74;44.82;99973.91;5094627;27;45531;-79
2022/11/15 11:52:21;;;;;;;;;2.33;1.67;;;;;25.71;45.15;99971.63;5095663;27;45164;-80
2022/11/15 11:54:47;;;;;;;;;0.67;0.67;;;;;25.71;45.24;99979.75;5092225;27;46297;-78
2022/11/15 11:57:43;;;;;;;;;1.33;1.00;;;;;25.63;45.12;99962.56;5095204;27;45488;-80
2022/11/15 12:00:22;;;;;;;;;1.00;1.00;;;;;25.64;45.21;99956.13;5080405;27;45553;-77
2022/11/15 12:03:09;;;;;;;;;2.00;1.00;;;;;25.68;45.27;99953.84;5067673;27;45813;-74
2022/11/15 12:05:34;;;;;;;;;2.33;2.33;;;;;25.71;45.47;99960.75;5053847;27;46061;-75
2022/11/15 12:08:30;;;;;;;;;1.00;1.00;;;;;25.74;45.30;99947.56;5065860;28;45595;-75
2022/11/15 12:11:13;;;;;;;;;1.00;1.00;;;;;25.74;45.32;99944.84;5072134;28;45379;-73
2022/11/15 12:13:40;;;;;;;;;1.67;1.00;;;;;25.77;45.08;99940.91;5069547;28;45478;-73
2022/11/15 12:16:23;;;;;;;;;0.33;0.33;;;;;25.82;45.13;99943.84;5071212;27;46282;-75
2022/11/15 12:18:52;;;;;;;;;1.00;1.00;;;;;25.83;44.89;99933.81;5065872;28;45407;-73
2022/11/15 12:21:36;;;;;;;;;0.00;0.00;;;;;25.83;44.98;99921.06;5069456;28;45782;-71
2022/11/15 12:24:11;;;;;;;;;2.00;2.00;;;;;25.81;44.97;99925.00;5068916;28;45475;-72
2022/11/15 12:26:52;;;;;;;;;3.67;2.00;;;;;25.79;44.92;99914.38;5059713;28;46363;-73
2022/11/15 12:29:28;;;;;;;;;1.00;1.00;;;;;25.71;44.56;99904.50;5067587;28;45785;-74
2022/11/15 12:31:58;;;;;;;;;1.33;1.00;;;;;25.67;45.04;99915.97;5069455;27;45685;-73
2022/11/15 12:34:44;;;;;;;;;1.00;1.00;;;;;25.57;44.40;99902.75;5064618;28;45789;-74
2022/11/15 12:37:48;;;;;;;;;1.33;1.33;;;;;25.47;44.53;99906.66;5074677;27;45803;-74
2022/11/15 12:40:23;;;;;;;;;1.00;1.00;;;;;25.39;44.41;99899.53;5091073;27;45441;-74
2022/11/15 12:43:08;;;;;;;;;1.00;1.00;;;;;25.33;44.26;99891.34;5082166;27;46291;-75
2022/11/15 12:45:37;;;;;;;;;0.33;0.33;;;;;25.22;44.37;99882.72;5088197;27;45328;-75
2022/11/15 12:48:17;;;;;;;;;1.33;1.33;;;;;25.17;44.03;99884.38;5085730;27;45392;-77
2022/11/15 12:50:53;;;;;;;;;1.00;1.00;;;;;25.12;44.33;99877.69;5091703;27;45460;-77
2022/11/15 12:53:24;;;;;;;;;0.33;0.33;;;;;25.09;44.43;99874.53;5092503;27;45424;-77
2022/11/15 12:56:01;;;;;;;;;1.33;1.33;;;;;25.07;44.14;99866.59;5086307;27;45575;-77
2022/11/15 12:58:38;;;;;;;;;1.00;1.00;;;;;25.04;44.71;99866.97;5091032;27;45417;-78
2022/11/15 13:01:07;;;;;;;;;1.00;1.00;;;;;24.94;44.08;99851.06;5085679;27;45376;-78
2022/11/15 13:03:33;;;;;;;;;2.00;2.00;;;;;24.90;44.14;99849.78;5089132;27;45499;-78
2022/11/15 13:06:02;;;;;;;;;1.00;1.00;;;;;24.91;44.24;99845.16;5077204;27;45487;-77
2022/11/15 13:08:43;;;;;;;;;1.67;1.67;;;;;24.92;44.61;99846.84;5083678;27;46065;-78
2022/11/15 13:11:47;;;;;;;;;4.00;3.33;;;;;24.89;43.91;99842.66;5076716;27;45421;-76
2022/11/15 13:14:43;;;;;;;;;2.00;1.67;;;;;24.88;44.10;99838.28;5086457;27;45545;-77
2022/11/15 13:17:29;;;;;;;;;1.33;0.67;;;;;24.86;43.93;99826.78;5076407;27;45427;-76
2022/11/15 13:20:06;;;;;;;;;1.00;1.00;;;;;24.87;43.80;99825.75;5085315;27;46198;-75
2022/11/15 13:22:51;;;;;;;;;2.00;2.00;;;;;24.81;44.14;99830.06;5088731;27;45407;-75
2022/11/15 13:25:26;;;;;;;;;1.00;1.00;;;;;24.83;44.01;99828.03;5081315;27;45519;-76
2022/11/15 13:27:54;;;;;;;;;1.00;1.00;;;;;24.79;44.40;99820.44;5087976;27;46969;-74
2022/11/15 13:30:23;;;;;;;;;1.00;1.00;;;;;24.83;43.94;99814.47;5088274;27;46957;-74
2022/11/15 13:32:49;;;;;;;;;3.00;1.00;;;;;24.82;44.11;99817.34;5088424;27;45558;-73
2022/11/15 13:35:21;;;;;;;;;1.00;1.00;;;;;24.80;43.64;99809.38;5090516;27;45742;-74
2022/11/15 13:37:47;;;;;;;;;2.00;2.00;;;;;24.79;44.03;99807.72;5091181;27;45588;-79
2022/11/15 13:40:27;;;;;;;;;1.67;1.67;;;;;24.74;43.90;99786.59;5085216;27;46136;-78
2022/11/15 13:42:53;;;;;;;;;1.00;1.00;;;;;24.72;44.21;99793.25;5091863;27;45386;-84
2022/11/15 13:45:19;;;;;;;;;5.00;2.00;;;;;24.68;43.97;99787.41;5102349;27;45374;-82
2022/11/15 13:47:57;;;;;;;;;4.33;2.00;;;;;24.70;44.02;99798.06;5095422;27;45460;-84
2022/11/15 13:50:35;;;;;;;;;3.00;3.00;;;;;24.64;43.96;99791.53;5096373;27;46202;-84
2022/11/15 13:53:04;;;;;;;;;1.00;1.00;;;;;24.60;43.85;99790.25;5086700;27;45598;-82
2022/11/15 13:55:32;;;;;;;;;1.00;1.00;;;;;24.57;43.83;99791.50;5089048;27;45784;-83
2022/11/15 13:58:05;;;;;;;;;1.33;1.33;;;;;24.58;44.29;99784.22;5091276;27;45556;-85
2022/11/15 14:00:37;;;;;;;;;2.33;2.33;;;;;24.56;43.88;99784.41;5085012;27;47180;-85
2022/11/15 14:03:16;;;;;;;;;3.33;2.00;;;;;24.57;43.95;99783.34;5085180;27;45462;-75
2022/11/15 14:05:41;;;;;;;;;3.00;1.00;;;;;24.57;43.97;99777.13;5084944;27;47341;-77
2022/11/15 14:08:19;;;;;;;;;2.00;2.00;;;;;24.59;43.92;99772.31;5083997;27;45695;-78
2022/11/15 14:10:44;;;;;;;;;2.00;2.00;;;;;24.57;44.17;99767.09;5087034;27;46365;-77
2022/11/15 14:13:27;;;;;;;;;1.00;1.00;;;;;24.58;43.87;99770.66;5092443;27;60523;-77
2022/11/15 14:15:52;;;;;;;;;2.67;2.67;;;;;24.52;43.69;99750.56;5094414;27;45514;-77
2022/11/15 14:18:43;;;;;;;;;1.33;1.33;;;;;24.57;43.85;99750.00;5093339;27;46271;-77
2022/11/15 14:21:08;;;;;;;;;1.67;1.67;;;;;24.52;43.83;99750.56;5091097;27;45533;-76
2022/11/15 14:23:34;;;;;;;;;2.00;2.00;;;;;24.52;43.68;99747.84;5080919;27;45886;-75
2022/11/15 14:25:59;;;;;;;;;2.00;2.00;;;;;24.46;43.95;99733.25;5094064;27;62037;-78
2022/11/15 14:28:24;;;;;;;;;3.00;3.00;;;;;24.51;43.75;99737.19;5094718;27;45576;-77
2022/11/15 14:30:53;;;;;;;;;1.00;1.00;;;;;24.50;43.92;99738.25;5088934;27;46932;-77
2022/11/15 14:33:37;;;;;;;;;1.00;1.00;;;;;24.48;43.72;99733.88;5081092;27;45557;-73
2022/11/15 14:36:06;;;;;;;;;3.00;1.00;;;;;24.49;43.87;99726.56;5094875;27;45478;-74
2022/11/15 14:38:32;;;;;;;;;0.67;0.67;;;;;24.52;43.79;99744.31;5090202;27;45465;-75
2022/11/15 14:40:58;;;;;;;;;3.00;2.00;;;;;24.53;43.86;99740.56;5089898;27;45867;-74
2022/11/15 14:43:23;;;;;;;;;1.67;1.67;;;;;24.52;44.19;99726.16;5094521;27;45386;-75
2022/11/15 14:45:49;;;;;;;;;1.67;1.67;;;;;24.53;43.90;99713.44;5093112;27;45622;-75
2022/11/15 14:48:14;;;;;;;;;2.00;1.00;;;;;24.54;43.78;99712.41;5092134;27;45545;-75
2022/11/15 14:50:40;;;;;;;;;1.67;1.67;;;;;24.55;43.84;99708.66;5089115;27;46336;-77
2022/11/15 14:53:05;;;;;;;;;4.00;3.00;;;;;24.51;43.34;99718.22;5083484;27;45562;-76
2022/11/15 14:55:35;;;;;;;;;3.00;2.33;;;;;24.50;43.69;99706.53;5086889;27;45405;-76
2022/11/15 14:58:03;;;;;;;;;3.33;1.67;;;;;24.50;43.63;99703.84;5090946;27;45430;-73
2022/11/15 15:00:31;;;;;;;;;2.33;2.33;;;;;24.49;43.78;99696.75;5089033;27;46568;-73
2022/11/15 15:02:58;;;;;;;;;1.67;1.67;;;;;24.54;44.19;99686.13;5091791;27;45535;-72
2022/11/15 15:05:29;;;;;;;;;2.67;2.67;;;;;24.59;44.04;99688.22;5093351;27;45415;-74
2022/11/15 15:07:54;;;;;;;;;1.67;1.67;;;;;24.63;43.82;99675.09;5092072;27;45516;-73
2022/11/15 15:10:20;;;;;;;;;2.00;2.00;;;;;24.74;43.78;99688.91;5094181;27;45553;-74
2022/11/15 15:12:46;;;;;;;;;1.33;1.33;;;;;24.83;43.86;99677.91;5089001;27;46045;-73
2022/11/15 15:15:24;;;;;;;;;1.67;1.67;;;;;24.93;44.05;99669.41;5095966;27;45414;-74
2022/11/15 15:17:49;;;;;;;;;2.00;2.00;;;;;25.02;43.84;99660.03;5085335;27;45430;-73
2022/11/15 15:20:15;;;;;;;;;1.00;1.00;;;;;25.15;44.05;99666.53;5080908;27;50313;-71
2022/11/15 15:22:40;;;;;;;;;2.67;2.00;;;;;25.24;44.02;99660.72;5087764;27;45391;-71
2022/11/15 15:25:22;;;;;;;;;2.00;2.00;;;;;25.35;44.18;99661.13;5087504;27;45382;-74
2022/11/15 15:27:48;;;;;;;;;2.00;2.00;;;;;25.42;44.25;99658.44;5097653;27;45473;-74
2022/11/15 15:30:13;;;;;;;;;2.00;1.67;;;;;25.47;43.89;99656.75;5090987;27;46018;-75
2022/11/15 15:32:39;;;;;;;;;1.67;1.67;;;;;25.57;43.88;99663.69;5095788;27;45418;-74
2022/11/15 15:35:04;;;;;;;;;3.00;1.33;;;;;25.62;43.70;99658.44;5083780;27;45575;-72
2022/11/15 15:37:32;;;;;;;;;2.33;2.00;;;;;25.62;43.87;99644.88;5089585;27;45673;-72
2022/11/15 15:39:58;;;;;;;;;2.00;2.00;;;;;25.64;43.59;99649.06;5090810;27;45661;-76
2022/11/15 15:42:24;;;;;;;;;3.33;2.33;;;;;25.67;43.26;99657.84;5094621;27;45599;-72
2022/11/15 17:30:48;;;;;;;;;6.50;5.00;;;;;19.17;48.35;99575.59;5093451;27;46082;-73
2022/11/15 17:33:14;;;;;;;;;4.00;4.00;;;;;19.45;48.59;99577.94;5081171;27;52642;-74
2022/11/15 17:35:39;;;;;;;;;6.67;5.33;;;;;19.86;49.41;99558.19;5078478;27;45770;-74
2022/11/15 17:38:04;;;;;;;;;3.00;2.67;;;;;20.46;49.39;99567.75;5079033;27;48920;-75
2022/11/15 17:40:29;;;;;;;;;4.67;4.67;;;;;20.99;48.79;99570.66;5080187;27;45437;-75
2022/11/15 17:42:56;;;;;;;;;5.00;3.00;;;;;21.48;48.91;99573.97;5082540;27;45451;-74
2022/11/15 17:45:21;;;;;;;;;5.67;5.00;;;;;21.92;48.83;99560.72;5083827;27;45512;-73
2022/11/15 17:47:46;;;;;;;;;6.00;3.33;;;;;22.30;48.23;99560.59;5077331;27;46372;-74
2022/11/15 17:50:12;;;;;;;;;3.67;3.67;;;;;22.61;48.37;99566.81;5080586;27;55254;-73
2022/11/15 17:52:37;;;;;;;;;6.67;6.67;;;;;22.87;47.98;99563.53;5075290;27;45471;-73
2022/11/15 17:55:02;;;;;;;;;4.33;4.00;;;;;23.10;47.96;99567.91;5075645;27;45615;-74
2022/11/15 17:57:28;;;;;;;;;4.00;4.00;;;;;23.34;47.60;99584.81;5080569;27;45363;-74
2022/11/15 17:59:53;;;;;;;;;4.00;3.00;;;;;23.52;47.71;99589.75;5078004;27;57191;-74
2022/11/15 18:02:18;;;;;;;;;5.00;4.67;;;;;23.68;47.54;99587.78;5076953;27;47348;-75
2022/11/15 18:04:44;;;;;;;;;5.00;5.00;;;;;23.79;47.41;99594.53;5073674;27;45324;-75
2022/11/15 18:07:11;;;;;;;;;4.33;2.67;;;;;23.94;47.29;99589.81;5081883;27;45526;-74
2022/11/15 18:09:37;;;;;;;;;4.00;4.00;;;;;24.03;47.54;99578.84;5087876;27;47256;-74
2022/11/15 18:12:03;;;;;;;;;3.67;3.00;;;;;24.16;47.29;99600.59;5071540;27;45478;-74
2022/11/15 18:14:28;;;;;;;;;6.00;4.00;;;;;24.29;47.44;99601.72;5083471;27;45410;-74
2022/11/15 18:16:53;;;;;;;;;2.67;2.67;;;;;24.44;46.91;99596.97;5080130;27;45481;-78
2022/11/15 18:19:19;;;;;;;;;4.67;4.67;;;;;24.52;46.47;99581.59;5083326;27;46698;-77
2022/11/15 18:21:57;;;;;;;;;3.00;3.00;;;;;24.56;46.49;99566.56;5079719;27;45420;-78
2022/11/15 18:24:25;;;;;;;;;6.67;6.00;;;;;24.50;46.38;99545.69;5090005;27;45777;-78
2022/11/15 18:26:51;;;;;;;;;4.67;4.67;;;;;24.54;46.27;99555.94;5066592;27;45995;-78
2022/11/15 18:29:17;;;;;;;;;5.67;4.33;;;;;24.55;46.38;99554.88;5076345;27;45621;-78
2022/11/15 18:31:42;;;;;;;;;4.00;4.00;;;;;24.51;46.31;99531.06;5090094;27;45697;-78
2022/11/15 18:34:08;;;;;;;;;3.00;3.00;;;;;24.48;45.97;99525.03;5090535;27;45674;-78
2022/11/15 18:36:35;;;;;;;;;5.00;4.00;;;;;24.52;45.94;99552.56;5091347;27;45485;-78
2022/11/15 18:39:03;;;;;;;;;4.67;4.67;;;;;24.53;45.77;99546.13;5084969;27;45444;-78
2022/11/15 18:41:29;;;;;;;;;5.00;4.00;;;;;24.50;45.47;99557.38;5069731;27;45665;-77
2022/11/15 18:43:57;;;;;;;;;3.33;3.00;;;;;24.50;45.41;99580.94;5079451;27;45422;-78
2022/11/15 18:46:24;;;;;;;;;3.00;3.00;;;;;24.50;45.88;99592.63;5067328;27;45631;-79
2022/11/15 18:48:51;;;;;;;;;3.00;3.00;;;;;24.50;45.41;99608.91;5068312;27;45997;-80
2022/11/15 18:51:19;;;;;;;;;3.67;3.33;;;;;24.50;45.44;99610.78;5084334;27;45626;-80
2022/11/15 18:53:46;;;;;;;;;3.00;3.00;;;;;24.49;45.46;99604.53;5062612;27;45519;-80
2022/11/15 18:56:16;;;;;;;;;3.00;3.00;;;;;24.47;45.31;99606.59;5079978;27;45553;-79
2022/11/15 18:58:45;;;;;;;;;5.00;2.67;;;;;24.50;45.28;99613.47;5074918;27;45371;-80
2022/11/15 19:01:14;;;;;;;;;3.67;3.67;;;;;24.47;45.38;99622.84;5063295;27;45412;-79
2022/11/15 19:03:41;;;;;;;;;3.00;3.00;;;;;24.43;45.25;99611.59;5071826;27;45451;-78
2022/11/15 19:06:11;;;;;;;;;4.00;3.00;;;;;24.43;45.51;99600.75;5076134;28;45555;-78
2022/11/15 19:08:37;;;;;;;;;3.00;3.00;;;;;24.41;44.98;99601.97;5073947;27;45492;-79
2022/11/15 19:11:22;;;;;;;;;4.00;4.00;;;;;24.44;44.98;99598.88;5069823;27;45528;-79
2022/11/15 19:13:52;;;;;;;;;2.67;2.67;;;;;24.43;45.47;99603.44;5075424;27;45520;-78
2022/11/15 19:16:17;;;;;;;;;3.67;3.67;;;;;24.42;44.61;99603.66;5077465;27;45422;-79
2022/11/15 19:18:42;;;;;;;;;3.33;3.33;;;;;24.46;44.97;99607.63;5072175;27;45447;-78
2022/11/15 19:21:12;;;;;;;;;4.00;4.00;;;;;24.39;44.98;99604.06;5070737;27;46157;-78
2022/11/15 19:23:40;;;;;;;;;3.33;3.33;;;;;24.43;44.63;99611.59;5063589;27;45492;-78
2022/11/15 19:26:09;;;;;;;;;3.00;3.00;;;;;24.47;45.07;99606.59;5063077;27;45415;-79
2022/11/15 19:28:34;;;;;;;;;3.00;3.00;;;;;24.47;44.89;99588.44;5072579;27;45529;-78
2022/11/15 19:31:14;;;;;;;;;4.67;3.33;;;;;24.49;44.87;99577.41;5067538;28;51435;-78
2022/11/15 19:33:41;;;;;;;;;3.00;3.00;;;;;24.51;44.80;99580.72;5065945;27;45603;-78
2022/11/15 19:36:22;;;;;;;;;5.67;3.33;;;;;24.53;44.86;99589.53;5059048;27;45447;-74
2022/11/15 19:38:47;;;;;;;;;4.00;3.33;;;;;24.55;44.76;99595.56;5063929;27;47411;-73
2022/11/15 19:41:15;;;;;;;;;3.33;3.33;;;;;24.58;44.46;99602.47;5069612;27;45504;-72
2022/11/15 19:43:41;;;;;;;;;2.00;2.00;;;;;24.61;44.93;99611.03;5069235;28;45458;-73
2022/11/15 19:46:10;;;;;;;;;5.00;3.33;;;;;24.64;45.08;99601.63;5062567;27;45525;-73
2022/11/15 19:48:36;;;;;;;;;4.00;4.00;;;;;24.71;44.89;99596.22;5063298;27;46496;-74
2022/11/15 19:51:03;;;;;;;;;2.00;2.00;;;;;24.80;44.76;99618.63;5064814;28;45573;-74
2022/11/15 19:53:29;;;;;;;;;3.00;3.00;;;;;24.87;45.16;99627.63;5064021;27;45445;-74
2022/11/15 19:56:00;;;;;;;;;4.00;2.00;;;;;24.95;44.85;99622.03;5068172;27;45508;-74
2022/11/15 19:58:29;;;;;;;;;6.33;4.00;;;;;25.05;44.76;99616.19;5060192;27;45473;-75
2022/11/15 20:01:17;;;;;;;;;6.33;4.00;;;;;25.14;44.58;99619.56;5062792;27;45617;-75
2022/11/15 20:03:43;;;;;;;;;4.33;4.33;;;;;25.23;44.96;99629.16;5054144;27;45402;-75
2022/11/15 20:06:14;;;;;;;;;4.00;4.00;;;;;25.34;44.79;99645.88;5061935;28;45355;-75
2022/11/15 20:08:40;;;;;;;;;4.33;4.33;;;;;25.36;44.91;99636.50;5063251;27;46061;-75
2022/11/15 20:11:05;;;;;;;;;2.00;2.00;;;;;25.47;44.44;99637.72;5068216;27;45367;-73
2022/11/15 20:13:30;;;;;;;;;4.00;4.00;;;;;25.53;44.49;99639.63;5070422;27;51373;-74